sensor_id;sensor_type;location;lat;lon;timestamp;temperature;humidity
3626;DHT22;1827;50.534;8.316;2022-08-23T00:01:09;18.00;93.10
3626;DHT22;1827;50.534;8.316;2022-08-23T00:03:35;17.90;93.20
3626;DHT22;1827;50.534;8.316;2022-08-23T00:06:01;17.80;93.10
3626;DHT22;1827;50.534;8.316;2022-08-23T00:08:27;17.90;93.10
3626;DHT22;1827;50.534;8.316;2022-08-23T00:10:53;17.70;93.20
3626;DHT22;1827;50.534;8.316;2022-08-23T00:13:20;17.50;93.30
3626;DHT22;1827;50.534;8.316;2022-08-23T00:15:46;17.50;94.20
3626;DHT22;1827;50.534;8.316;2022-08-23T00:18:11;17.50;94.20
3626;DHT22;1827;50.534;8.316;2022-08-23T00:20:38;17.50;94.60
3626;DHT22;1827;50.534;8.316;2022-08-23T00:23:04;17.50;95.30
3626;DHT22;1827;50.534;8.316;2022-08-23T00:25:30;17.40;95.20
3626;DHT22;1827;50.534;8.316;2022-08-23T00:27:55;17.30;95.30
3626;DHT22;1827;50.534;8.316;2022-08-23T00:30:21;17.20;94.80
3626;DHT22;1827;50.534;8.316;2022-08-23T00:32:47;17.00;95.10
3626;DHT22;1827;50.534;8.316;2022-08-23T00:35:14;16.90;95.30
3626;DHT22;1827;50.534;8.316;2022-08-23T00:37:40;16.90;95.50
3626;DHT22;1827;50.534;8.316;2022-08-23T00:40:07;16.90;95.10
3626;DHT22;1827;50.534;8.316;2022-08-23T00:42:36;17.00;95.20
3626;DHT22;1827;50.534;8.316;2022-08-23T00:45:43;16.90;95.20
3626;DHT22;1827;50.534;8.316;2022-08-23T00:48:25;16.80;96.10
3626;DHT22;1827;50.534;8.316;2022-08-23T00:53:21;16.70;96.50
3626;DHT22;1827;50.534;8.316;2022-08-23T00:55:49;16.60;96.50
3626;DHT22;1827;50.534;8.316;2022-08-23T00:58:16;16.60;96.20
3626;DHT22;1827;50.534;8.316;2022-08-23T01:00:43;16.50;96.20
3626;DHT22;1827;50.534;8.316;2022-08-23T01:03:09;16.40;96.20
3626;DHT22;1827;50.534;8.316;2022-08-23T01:05:46;16.40;96.40
3626;DHT22;1827;50.534;8.316;2022-08-23T01:08:17;16.40;97.10
3626;DHT22;1827;50.534;8.316;2022-08-23T01:10:48;16.30;97.40
3626;DHT22;1827;50.534;8.316;2022-08-23T01:13:28;16.30;98.00
3626;DHT22;1827;50.534;8.316;2022-08-23T01:15:59;16.20;98.40
3626;DHT22;1827;50.534;8.316;2022-08-23T01:18:27;16.20;98.70
3626;DHT22;1827;50.534;8.316;2022-08-23T01:21:02;16.10;98.80
3626;DHT22;1827;50.534;8.316;2022-08-23T01:26:26;15.80;99.30
3626;DHT22;1827;50.534;8.316;2022-08-23T01:28:52;15.80;99.80
3626;DHT22;1827;50.534;8.316;2022-08-23T01:31:19;15.80;99.90
3626;DHT22;1827;50.534;8.316;2022-08-23T01:33:49;15.80;99.90
3626;DHT22;1827;50.534;8.316;2022-08-23T01:36:18;15.70;99.90
3626;DHT22;1827;50.534;8.316;2022-08-23T01:38:47;15.60;99.90
3626;DHT22;1827;50.534;8.316;2022-08-23T01:41:13;15.60;99.90
3626;DHT22;1827;50.534;8.316;2022-08-23T01:43:38;15.60;99.90
3626;DHT22;1827;50.534;8.316;2022-08-23T01:46:09;15.50;99.90
3626;DHT22;1827;50.534;8.316;2022-08-23T01:48:36;15.50;99.90
3626;DHT22;1827;50.534;8.316;2022-08-23T01:51:02;15.40;99.90
3626;DHT22;1827;50.534;8.316;2022-08-23T01:53:28;15.40;99.90
3626;DHT22;1827;50.534;8.316;2022-08-23T01:55:54;15.40;99.90
3626;DHT22;1827;50.534;8.316;2022-08-23T01:58:20;15.30;99.90
3626;DHT22;1827;50.534;8.316;2022-08-23T02:00:46;15.10;99.90
3626;DHT22;1827;50.534;8.316;2022-08-23T02:03:12;15.10;99.90
3626;DHT22;1827;50.534;8.316;2022-08-23T02:05:39;15.10;99.90
3626;DHT22;1827;50.534;8.316;2022-08-23T02:08:05;15.20;99.90
3626;DHT22;1827;50.534;8.316;2022-08-23T02:10:52;15.10;99.90
3626;DHT22;1827;50.534;8.316;2022-08-23T02:13:19;15.10;99.90
3626;DHT22;1827;50.534;8.316;2022-08-23T02:15:45;15.10;99.90
3626;DHT22;1827;50.534;8.316;2022-08-23T02:18:14;15.10;99.90
3626;DHT22;1827;50.534;8.316;2022-08-23T02:20:44;15.10;99.90
3626;DHT22;1827;50.534;8.316;2022-08-23T02:23:10;15.00;99.90
3626;DHT22;1827;50.534;8.316;2022-08-23T02:25:36;15.00;99.90
3626;DHT22;1827;50.534;8.316;2022-08-23T02:28:02;14.90;99.90
3626;DHT22;1827;50.534;8.316;2022-08-23T02:30:28;14.90;99.90
3626;DHT22;1827;50.534;8.316;2022-08-23T02:32:54;14.80;99.90
3626;DHT22;1827;50.534;8.316;2022-08-23T02:35:21;14.80;99.90
3626;DHT22;1827;50.534;8.316;2022-08-23T02:37:47;14.80;99.90
3626;DHT22;1827;50.534;8.316;2022-08-23T02:40:14;14.90;99.90
3626;DHT22;1827;50.534;8.316;2022-08-23T02:42:40;14.90;99.90
3626;DHT22;1827;50.534;8.316;2022-08-23T02:45:07;14.80;99.90
3626;DHT22;1827;50.534;8.316;2022-08-23T02:47:37;14.80;99.90
3626;DHT22;1827;50.534;8.316;2022-08-23T02:50:23;14.80;99.90
3626;DHT22;1827;50.534;8.316;2022-08-23T02:52:49;14.80;99.90
3626;DHT22;1827;50.534;8.316;2022-08-23T02:55:15;14.80;99.90
3626;DHT22;1827;50.534;8.316;2022-08-23T02:57:40;14.80;99.90
3626;DHT22;1827;50.534;8.316;2022-08-23T03:00:09;14.80;99.90
3626;DHT22;1827;50.534;8.316;2022-08-23T03:02:36;14.80;99.90
3626;DHT22;1827;50.534;8.316;2022-08-23T03:05:06;14.80;99.90
3626;DHT22;1827;50.534;8.316;2022-08-23T03:07:32;14.80;99.90
3626;DHT22;1827;50.534;8.316;2022-08-23T03:09:58;14.80;99.90
3626;DHT22;1827;50.534;8.316;2022-08-23T03:12:24;14.80;99.90
3626;DHT22;1827;50.534;8.316;2022-08-23T03:14:53;14.80;99.90
3626;DHT22;1827;50.534;8.316;2022-08-23T03:17:20;14.80;99.90
3626;DHT22;1827;50.534;8.316;2022-08-23T03:19:46;14.80;99.90
3626;DHT22;1827;50.534;8.316;2022-08-23T03:22:12;14.80;99.90
3626;DHT22;1827;50.534;8.316;2022-08-23T03:24:38;14.80;99.90
3626;DHT22;1827;50.534;8.316;2022-08-23T03:27:04;14.80;99.90
3626;DHT22;1827;50.534;8.316;2022-08-23T03:29:31;14.70;99.90
3626;DHT22;1827;50.534;8.316;2022-08-23T03:32:00;14.70;99.90
3626;DHT22;1827;50.534;8.316;2022-08-23T03:34:28;14.70;99.90
3626;DHT22;1827;50.534;8.316;2022-08-23T03:36:55;14.70;99.90
3626;DHT22;1827;50.534;8.316;2022-08-23T03:39:21;14.70;99.90
3626;DHT22;1827;50.534;8.316;2022-08-23T03:41:47;14.60;99.90
3626;DHT22;1827;50.534;8.316;2022-08-23T03:44:13;14.60;99.90
3626;DHT22;1827;50.534;8.316;2022-08-23T03:46:41;14.50;99.90
3626;DHT22;1827;50.534;8.316;2022-08-23T03:49:07;14.40;99.90
3626;DHT22;1827;50.534;8.316;2022-08-23T03:51:43;14.40;99.90
3626;DHT22;1827;50.534;8.316;2022-08-23T03:54:09;14.40;99.90
3626;DHT22;1827;50.534;8.316;2022-08-23T03:56:37;14.30;99.90
3626;DHT22;1827;50.534;8.316;2022-08-23T03:59:08;14.20;99.90
3626;DHT22;1827;50.534;8.316;2022-08-23T04:01:35;14.20;99.90
3626;DHT22;1827;50.534;8.316;2022-08-23T04:04:02;14.10;99.90
3626;DHT22;1827;50.534;8.316;2022-08-23T04:06:29;14.10;99.90
3626;DHT22;1827;50.534;8.316;2022-08-23T04:08:56;14.10;99.90
3626;DHT22;1827;50.534;8.316;2022-08-23T04:11:22;14.10;99.90
3626;DHT22;1827;50.534;8.316;2022-08-23T04:13:56;14.00;99.90
3626;DHT22;1827;50.534;8.316;2022-08-23T04:16:21;14.00;99.90
3626;DHT22;1827;50.534;8.316;2022-08-23T04:18:47;13.90;99.90
3626;DHT22;1827;50.534;8.316;2022-08-23T04:21:17;13.80;99.90
3626;DHT22;1827;50.534;8.316;2022-08-23T04:23:43;13.80;99.90
3626;DHT22;1827;50.534;8.316;2022-08-23T04:26:09;13.70;99.90
3626;DHT22;1827;50.534;8.316;2022-08-23T04:28:35;13.70;99.90
3626;DHT22;1827;50.534;8.316;2022-08-23T04:31:02;13.70;99.90
3626;DHT22;1827;50.534;8.316;2022-08-23T04:33:28;13.70;99.90
3626;DHT22;1827;50.534;8.316;2022-08-23T04:35:56;13.70;99.90
3626;DHT22;1827;50.534;8.316;2022-08-23T04:38:22;13.70;99.90
3626;DHT22;1827;50.534;8.316;2022-08-23T04:40:48;13.60;99.90
3626;DHT22;1827;50.534;8.316;2022-08-23T04:43:34;13.60;99.90
3626;DHT22;1827;50.534;8.316;2022-08-23T04:46:00;13.60;99.90
3626;DHT22;1827;50.534;8.316;2022-08-23T04:48:32;13.70;99.90
3626;DHT22;1827;50.534;8.316;2022-08-23T04:50:58;13.70;99.90
3626;DHT22;1827;50.534;8.316;2022-08-23T04:53:24;13.60;99.90
3626;DHT22;1827;50.534;8.316;2022-08-23T04:56:01;13.70;99.90
3626;DHT22;1827;50.534;8.316;2022-08-23T04:58:29;13.60;99.90
3626;DHT22;1827;50.534;8.316;2022-08-23T05:00:56;13.70;99.90
3626;DHT22;1827;50.534;8.316;2022-08-23T05:03:25;13.70;99.90
3626;DHT22;1827;50.534;8.316;2022-08-23T05:05:53;13.70;99.90
3626;DHT22;1827;50.534;8.316;2022-08-23T05:08:24;13.70;99.90
3626;DHT22;1827;50.534;8.316;2022-08-23T05:10:50;13.80;99.90
3626;DHT22;1827;50.534;8.316;2022-08-23T05:13:17;13.90;99.90
3626;DHT22;1827;50.534;8.316;2022-08-23T05:15:42;13.90;99.90
3626;DHT22;1827;50.534;8.316;2022-08-23T05:18:09;14.00;99.90
3626;DHT22;1827;50.534;8.316;2022-08-23T05:20:35;14.10;99.90
3626;DHT22;1827;50.534;8.316;2022-08-23T05:23:01;14.10;99.90
3626;DHT22;1827;50.534;8.316;2022-08-23T05:25:30;14.20;99.90
3626;DHT22;1827;50.534;8.316;2022-08-23T05:28:21;14.30;99.90
3626;DHT22;1827;50.534;8.316;2022-08-23T05:31:01;14.40;99.90
3626;DHT22;1827;50.534;8.316;2022-08-23T05:33:31;14.50;99.90
3626;DHT22;1827;50.534;8.316;2022-08-23T05:35:57;14.60;99.90
3626;DHT22;1827;50.534;8.316;2022-08-23T05:38:23;14.70;99.90
3626;DHT22;1827;50.534;8.316;2022-08-23T05:40:50;14.80;99.90
3626;DHT22;1827;50.534;8.316;2022-08-23T05:43:16;14.90;99.90
3626;DHT22;1827;50.534;8.316;2022-08-23T05:45:42;15.00;99.90
3626;DHT22;1827;50.534;8.316;2022-08-23T05:48:07;15.10;99.90
3626;DHT22;1827;50.534;8.316;2022-08-23T05:50:41;15.30;99.90
3626;DHT22;1827;50.534;8.316;2022-08-23T05:53:07;15.30;99.90
3626;DHT22;1827;50.534;8.316;2022-08-23T05:55:35;15.50;99.90
3626;DHT22;1827;50.534;8.316;2022-08-23T05:58:13;15.70;99.90
3626;DHT22;1827;50.534;8.316;2022-08-23T06:00:39;15.70;99.90
3626;DHT22;1827;50.534;8.316;2022-08-23T06:03:05;15.80;99.90
3626;DHT22;1827;50.534;8.316;2022-08-23T06:05:30;16.00;99.90
3626;DHT22;1827;50.534;8.316;2022-08-23T06:07:58;16.20;99.90
3626;DHT22;1827;50.534;8.316;2022-08-23T06:10:24;16.40;99.90
3626;DHT22;1827;50.534;8.316;2022-08-23T06:13:02;16.70;99.90
3626;DHT22;1827;50.534;8.316;2022-08-23T06:15:28;16.80;99.90
3626;DHT22;1827;50.534;8.316;2022-08-23T06:17:55;17.40;99.90
3626;DHT22;1827;50.534;8.316;2022-08-23T06:20:21;17.90;99.90
3626;DHT22;1827;50.534;8.316;2022-08-23T06:22:58;18.30;99.90
3626;DHT22;1827;50.534;8.316;2022-08-23T06:25:23;18.80;99.90
3626;DHT22;1827;50.534;8.316;2022-08-23T06:28:01;18.90;99.90
3626;DHT22;1827;50.534;8.316;2022-08-23T06:30:27;19.00;99.90
3626;DHT22;1827;50.534;8.316;2022-08-23T06:32:58;18.30;99.90
3626;DHT22;1827;50.534;8.316;2022-08-23T06:35:47;18.30;99.90
3626;DHT22;1827;50.534;8.316;2022-08-23T06:38:25;18.40;99.90
3626;DHT22;1827;50.534;8.316;2022-08-23T06:41:08;18.90;99.90
3626;DHT22;1827;50.534;8.316;2022-08-23T06:43:40;19.40;99.90
3626;DHT22;1827;50.534;8.316;2022-08-23T06:46:30;19.20;99.90
3626;DHT22;1827;50.534;8.316;2022-08-23T06:48:57;19.10;99.90
3626;DHT22;1827;50.534;8.316;2022-08-23T06:54:14;19.10;99.90
3626;DHT22;1827;50.534;8.316;2022-08-23T06:57:00;19.40;99.90
3626;DHT22;1827;50.534;8.316;2022-08-23T06:59:41;19.70;99.90
3626;DHT22;1827;50.534;8.316;2022-08-23T07:02:29;19.60;99.90
3626;DHT22;1827;50.534;8.316;2022-08-23T07:04:54;20.10;99.90
3626;DHT22;1827;50.534;8.316;2022-08-23T07:07:29;20.60;99.90
3626;DHT22;1827;50.534;8.316;2022-08-23T07:09:55;20.70;99.90
3626;DHT22;1827;50.534;8.316;2022-08-23T07:12:23;21.00;99.90
3626;DHT22;1827;50.534;8.316;2022-08-23T07:14:48;20.90;99.90
3626;DHT22;1827;50.534;8.316;2022-08-23T07:17:14;21.40;99.90
3626;DHT22;1827;50.534;8.316;2022-08-23T07:19:41;22.20;99.90
3626;DHT22;1827;50.534;8.316;2022-08-23T07:22:08;21.00;99.90
3626;DHT22;1827;50.534;8.316;2022-08-23T07:24:35;20.90;99.90
3626;DHT22;1827;50.534;8.316;2022-08-23T07:27:03;20.90;99.90
3626;DHT22;1827;50.534;8.316;2022-08-23T07:29:40;21.30;99.90
3626;DHT22;1827;50.534;8.316;2022-08-23T07:32:07;22.00;99.90
3626;DHT22;1827;50.534;8.316;2022-08-23T07:34:34;21.90;99.90
3626;DHT22;1827;50.534;8.316;2022-08-23T07:37:00;22.30;99.90
3626;DHT22;1827;50.534;8.316;2022-08-23T07:39:26;22.00;99.90
3626;DHT22;1827;50.534;8.316;2022-08-23T07:41:53;22.20;99.90
3626;DHT22;1827;50.534;8.316;2022-08-23T07:44:20;22.30;99.90
3626;DHT22;1827;50.534;8.316;2022-08-23T07:46:46;22.20;99.90
3626;DHT22;1827;50.534;8.316;2022-08-23T07:49:14;22.30;99.90
3626;DHT22;1827;50.534;8.316;2022-08-23T07:51:45;23.50;99.90
3626;DHT22;1827;50.534;8.316;2022-08-23T07:54:11;24.30;99.90
3626;DHT22;1827;50.534;8.316;2022-08-23T07:56:45;23.60;99.80
3626;DHT22;1827;50.534;8.316;2022-08-23T07:59:27;23.80;99.90
3626;DHT22;1827;50.534;8.316;2022-08-23T08:02:20;24.00;97.40
3626;DHT22;1827;50.534;8.316;2022-08-23T08:04:48;24.90;96.80
3626;DHT22;1827;50.534;8.316;2022-08-23T08:07:14;25.50;98.20
3626;DHT22;1827;50.534;8.316;2022-08-23T08:09:42;23.50;96.90
3626;DHT22;1827;50.534;8.316;2022-08-23T08:12:09;24.00;97.60
3626;DHT22;1827;50.534;8.316;2022-08-23T08:14:37;24.50;96.30
3626;DHT22;1827;50.534;8.316;2022-08-23T08:17:04;25.30;96.50
3626;DHT22;1827;50.534;8.316;2022-08-23T08:19:48;24.70;96.10
3626;DHT22;1827;50.534;8.316;2022-08-23T08:22:36;24.80;95.60
3626;DHT22;1827;50.534;8.316;2022-08-23T08:25:05;25.10;95.70
3626;DHT22;1827;50.534;8.316;2022-08-23T08:27:31;24.50;93.00
3626;DHT22;1827;50.534;8.316;2022-08-23T08:29:57;25.00;94.50
3626;DHT22;1827;50.534;8.316;2022-08-23T08:32:23;25.10;92.80
3626;DHT22;1827;50.534;8.316;2022-08-23T08:34:49;24.30;92.90
3626;DHT22;1827;50.534;8.316;2022-08-23T08:37:15;25.50;94.20
3626;DHT22;1827;50.534;8.316;2022-08-23T08:39:41;24.70;93.10
3626;DHT22;1827;50.534;8.316;2022-08-23T08:44:58;27.50;89.80
3626;DHT22;1827;50.534;8.316;2022-08-23T08:55:07;26.30;88.00
3626;DHT22;1827;50.534;8.316;2022-08-23T08:57:40;26.70;86.50
3626;DHT22;1827;50.534;8.316;2022-08-23T09:00:09;26.90;82.70
3626;DHT22;1827;50.534;8.316;2022-08-23T09:02:39;27.20;84.10
3626;DHT22;1827;50.534;8.316;2022-08-23T09:05:19;27.30;81.70
3626;DHT22;1827;50.534;8.316;2022-08-23T09:15:51;27.90;77.40
3626;DHT22;1827;50.534;8.316;2022-08-23T09:18:19;27.90;80.40
3626;DHT22;1827;50.534;8.316;2022-08-23T09:20:46;27.10;82.30
3626;DHT22;1827;50.534;8.316;2022-08-23T09:23:21;27.60;81.10
3626;DHT22;1827;50.534;8.316;2022-08-23T09:25:51;28.30;79.40
3626;DHT22;1827;50.534;8.316;2022-08-23T09:28:16;28.80;75.50
3626;DHT22;1827;50.534;8.316;2022-08-23T09:30:46;29.60;80.40
3626;DHT22;1827;50.534;8.316;2022-08-23T09:33:17;29.50;73.70
3626;DHT22;1827;50.534;8.316;2022-08-23T09:35:43;30.00;76.80
3626;DHT22;1827;50.534;8.316;2022-08-23T09:38:24;28.40;72.10
3626;DHT22;1827;50.534;8.316;2022-08-23T09:40:56;29.10;70.60
3626;DHT22;1827;50.534;8.316;2022-08-23T09:43:24;28.50;70.50
3626;DHT22;1827;50.534;8.316;2022-08-23T09:45:54;29.00;73.10
3626;DHT22;1827;50.534;8.316;2022-08-23T09:51:47;28.30;69.80
3626;DHT22;1827;50.534;8.316;2022-08-23T09:53:49;28.90;71.30
3626;DHT22;1827;50.534;8.316;2022-08-23T09:56:22;29.10;71.40
3626;DHT22;1827;50.534;8.316;2022-08-23T09:58:49;31.00;68.30
3626;DHT22;1827;50.534;8.316;2022-08-23T10:01:26;30.10;70.90
3626;DHT22;1827;50.534;8.316;2022-08-23T10:04:14;29.70;67.00
3626;DHT22;1827;50.534;8.316;2022-08-23T10:06:41;29.80;69.80
3626;DHT22;1827;50.534;8.316;2022-08-23T10:09:08;29.80;69.50
3626;DHT22;1827;50.534;8.316;2022-08-23T10:11:39;29.60;67.80
3626;DHT22;1827;50.534;8.316;2022-08-23T10:14:07;29.70;66.40
3626;DHT22;1827;50.534;8.316;2022-08-23T10:16:39;30.00;70.30
3626;DHT22;1827;50.534;8.316;2022-08-23T10:24:40;31.80;63.60
3626;DHT22;1827;50.534;8.316;2022-08-23T10:29:58;28.90;68.90
3626;DHT22;1827;50.534;8.316;2022-08-23T10:40:22;30.60;63.50
3626;DHT22;1827;50.534;8.316;2022-08-23T10:50:25;32.30;60.90
3626;DHT22;1827;50.534;8.316;2022-08-23T10:52:57;30.60;59.80
3626;DHT22;1827;50.534;8.316;2022-08-23T10:55:26;30.90;61.50
3626;DHT22;1827;50.534;8.316;2022-08-23T10:58:02;31.60;58.90
3626;DHT22;1827;50.534;8.316;2022-08-23T11:00:30;31.60;59.60
3626;DHT22;1827;50.534;8.316;2022-08-23T11:05:35;30.80;58.20
3626;DHT22;1827;50.534;8.316;2022-08-23T11:08:33;30.50;61.20
3626;DHT22;1827;50.534;8.316;2022-08-23T11:11:03;30.80;58.60
3626;DHT22;1827;50.534;8.316;2022-08-23T11:13:32;30.50;57.30
3626;DHT22;1827;50.534;8.316;2022-08-23T11:16:12;31.30;60.10
3626;DHT22;1827;50.534;8.316;2022-08-23T11:18:40;31.10;58.80
3626;DHT22;1827;50.534;8.316;2022-08-23T11:21:39;30.40;56.90
3626;DHT22;1827;50.534;8.316;2022-08-23T11:31:33;33.10;56.20
3626;DHT22;1827;50.534;8.316;2022-08-23T11:34:13;34.10;55.50
3626;DHT22;1827;50.534;8.316;2022-08-23T11:37:22;34.10;54.70
3626;DHT22;1827;50.534;8.316;2022-08-23T11:39:31;33.30;55.20
3626;DHT22;1827;50.534;8.316;2022-08-23T11:42:17;34.30;53.80
3626;DHT22;1827;50.534;8.316;2022-08-23T11:44:47;34.80;51.80
3626;DHT22;1827;50.534;8.316;2022-08-23T11:47:13;34.70;51.60
3626;DHT22;1827;50.534;8.316;2022-08-23T11:49:44;35.30;54.40
3626;DHT22;1827;50.534;8.316;2022-08-23T11:57:34;35.70;46.10
3626;DHT22;1827;50.534;8.316;2022-08-23T12:00:18;34.60;43.00
3626;DHT22;1827;50.534;8.316;2022-08-23T12:03:04;34.10;50.40
3626;DHT22;1827;50.534;8.316;2022-08-23T12:14:30;32.40;45.00
3626;DHT22;1827;50.534;8.316;2022-08-23T12:23:43;32.90;49.50
3626;DHT22;1827;50.534;8.316;2022-08-23T12:26:12;32.80;44.20
3626;DHT22;1827;50.534;8.316;2022-08-23T12:28:46;31.40;47.70
3626;DHT22;1827;50.534;8.316;2022-08-23T12:34:02;30.40;44.80
3626;DHT22;1827;50.534;8.316;2022-08-23T12:41:47;33.60;47.10
3626;DHT22;1827;50.534;8.316;2022-08-23T12:44:15;34.20;44.40
3626;DHT22;1827;50.534;8.316;2022-08-23T12:46:43;33.30;46.80
3626;DHT22;1827;50.534;8.316;2022-08-23T12:49:10;32.30;45.50
3626;DHT22;1827;50.534;8.316;2022-08-23T12:51:50;31.80;47.30
3626;DHT22;1827;50.534;8.316;2022-08-23T12:54:17;31.10;45.30
3626;DHT22;1827;50.534;8.316;2022-08-23T12:56:44;30.60;46.20
3626;DHT22;1827;50.534;8.316;2022-08-23T12:59:24;31.10;44.30
3626;DHT22;1827;50.534;8.316;2022-08-23T13:01:51;31.10;47.00
3626;DHT22;1827;50.534;8.316;2022-08-23T13:04:25;31.30;47.10
3626;DHT22;1827;50.534;8.316;2022-08-23T13:06:55;30.80;43.60
3626;DHT22;1827;50.534;8.316;2022-08-23T13:09:23;30.70;42.90
3626;DHT22;1827;50.534;8.316;2022-08-23T13:11:50;31.10;46.20
3626;DHT22;1827;50.534;8.316;2022-08-23T13:14:36;31.70;47.00
3626;DHT22;1827;50.534;8.316;2022-08-23T13:19:41;32.50;45.10
3626;DHT22;1827;50.534;8.316;2022-08-23T13:24:44;34.00;43.80
3626;DHT22;1827;50.534;8.316;2022-08-23T13:27:15;34.80;44.10
3626;DHT22;1827;50.534;8.316;2022-08-23T13:37:47;32.20;45.50
3626;DHT22;1827;50.534;8.316;2022-08-23T13:40:15;31.80;44.20
3626;DHT22;1827;50.534;8.316;2022-08-23T13:42:52;33.50;42.40
3626;DHT22;1827;50.534;8.316;2022-08-23T13:45:24;34.20;41.60
3626;DHT22;1827;50.534;8.316;2022-08-23T13:47:54;33.10;41.50
3626;DHT22;1827;50.534;8.316;2022-08-23T13:50:24;32.90;44.10
3626;DHT22;1827;50.534;8.316;2022-08-23T13:52:50;32.20;40.50
3626;DHT22;1827;50.534;8.316;2022-08-23T13:55:16;32.60;40.20
3626;DHT22;1827;50.534;8.316;2022-08-23T13:57:42;32.60;38.50
3626;DHT22;1827;50.534;8.316;2022-08-23T14:00:08;32.10;42.30
3626;DHT22;1827;50.534;8.316;2022-08-23T14:02:35;32.60;40.50
3626;DHT22;1827;50.534;8.316;2022-08-23T14:05:02;32.30;43.80
3626;DHT22;1827;50.534;8.316;2022-08-23T14:07:28;32.20;44.70
3626;DHT22;1827;50.534;8.316;2022-08-23T14:09:54;31.90;44.90
3626;DHT22;1827;50.534;8.316;2022-08-23T14:12:23;31.90;42.10
3626;DHT22;1827;50.534;8.316;2022-08-23T14:14:49;32.10;40.40
3626;DHT22;1827;50.534;8.316;2022-08-23T14:17:15;32.00;42.50
3626;DHT22;1827;50.534;8.316;2022-08-23T14:19:41;31.80;41.80
3626;DHT22;1827;50.534;8.316;2022-08-23T14:22:07;31.60;41.40
3626;DHT22;1827;50.534;8.316;2022-08-23T14:24:33;31.40;40.60
3626;DHT22;1827;50.534;8.316;2022-08-23T14:26:59;31.70;39.90
3626;DHT22;1827;50.534;8.316;2022-08-23T14:29:25;32.20;41.90
3626;DHT22;1827;50.534;8.316;2022-08-23T14:31:52;33.00;37.00
3626;DHT22;1827;50.534;8.316;2022-08-23T14:34:18;33.50;38.00
3626;DHT22;1827;50.534;8.316;2022-08-23T14:36:44;33.90;38.60
3626;DHT22;1827;50.534;8.316;2022-08-23T14:39:09;33.20;36.50
3626;DHT22;1827;50.534;8.316;2022-08-23T14:41:35;32.90;36.60
3626;DHT22;1827;50.534;8.316;2022-08-23T14:44:01;32.90;36.60
3626;DHT22;1827;50.534;8.316;2022-08-23T14:46:27;32.40;39.10
3626;DHT22;1827;50.534;8.316;2022-08-23T14:48:52;32.70;37.50
3626;DHT22;1827;50.534;8.316;2022-08-23T14:51:23;32.90;36.20
3626;DHT22;1827;50.534;8.316;2022-08-23T14:53:49;33.30;37.90
3626;DHT22;1827;50.534;8.316;2022-08-23T14:56:14;33.70;37.40
3626;DHT22;1827;50.534;8.316;2022-08-23T14:58:40;33.30;36.40
3626;DHT22;1827;50.534;8.316;2022-08-23T15:01:07;32.80;38.40
3626;DHT22;1827;50.534;8.316;2022-08-23T15:03:33;32.80;37.70
3626;DHT22;1827;50.534;8.316;2022-08-23T15:05:59;31.70;37.60
3626;DHT22;1827;50.534;8.316;2022-08-23T15:08:26;32.40;37.90
3626;DHT22;1827;50.534;8.316;2022-08-23T15:10:52;32.30;39.20
3626;DHT22;1827;50.534;8.316;2022-08-23T15:13:21;31.10;37.50
3626;DHT22;1827;50.534;8.316;2022-08-23T15:15:49;30.30;38.80
3626;DHT22;1827;50.534;8.316;2022-08-23T15:18:15;30.40;40.50
3626;DHT22;1827;50.534;8.316;2022-08-23T15:20:41;30.60;40.10
3626;DHT22;1827;50.534;8.316;2022-08-23T15:23:07;30.70;41.20
3626;DHT22;1827;50.534;8.316;2022-08-23T15:25:34;30.60;41.20
3626;DHT22;1827;50.534;8.316;2022-08-23T15:28:00;30.60;42.70
3626;DHT22;1827;50.534;8.316;2022-08-23T15:30:27;30.70;42.50
3626;DHT22;1827;50.534;8.316;2022-08-23T15:32:53;30.80;40.00
3626;DHT22;1827;50.534;8.316;2022-08-23T15:35:19;31.20;39.00
3626;DHT22;1827;50.534;8.316;2022-08-23T15:37:46;31.20;41.90
3626;DHT22;1827;50.534;8.316;2022-08-23T15:40:13;30.60;39.30
3626;DHT22;1827;50.534;8.316;2022-08-23T15:42:38;30.60;39.00
3626;DHT22;1827;50.534;8.316;2022-08-23T15:45:04;30.60;39.90
3626;DHT22;1827;50.534;8.316;2022-08-23T15:47:33;30.50;40.10
3626;DHT22;1827;50.534;8.316;2022-08-23T15:49:59;30.50;41.70
3626;DHT22;1827;50.534;8.316;2022-08-23T15:52:25;30.40;41.20
3626;DHT22;1827;50.534;8.316;2022-08-23T15:54:52;30.20;40.10
3626;DHT22;1827;50.534;8.316;2022-08-23T15:57:27;30.50;42.10
3626;DHT22;1827;50.534;8.316;2022-08-23T15:59:53;30.60;40.00
3626;DHT22;1827;50.534;8.316;2022-08-23T16:02:19;30.20;38.80
3626;DHT22;1827;50.534;8.316;2022-08-23T16:04:45;30.50;42.50
3626;DHT22;1827;50.534;8.316;2022-08-23T16:07:12;30.50;40.40
3626;DHT22;1827;50.534;8.316;2022-08-23T16:09:38;30.10;40.60
3626;DHT22;1827;50.534;8.316;2022-08-23T16:12:05;30.10;42.10
3626;DHT22;1827;50.534;8.316;2022-08-23T16:14:31;30.20;41.50
3626;DHT22;1827;50.534;8.316;2022-08-23T16:16:57;30.10;39.50
3626;DHT22;1827;50.534;8.316;2022-08-23T16:19:23;29.90;39.30
3626;DHT22;1827;50.534;8.316;2022-08-23T16:21:49;30.10;39.00
3626;DHT22;1827;50.534;8.316;2022-08-23T16:24:17;30.20;39.70
3626;DHT22;1827;50.534;8.316;2022-08-23T16:26:44;30.10;40.20
3626;DHT22;1827;50.534;8.316;2022-08-23T16:29:10;30.20;40.60
3626;DHT22;1827;50.534;8.316;2022-08-23T16:31:38;30.40;40.70
3626;DHT22;1827;50.534;8.316;2022-08-23T16:34:05;30.30;41.50
3626;DHT22;1827;50.534;8.316;2022-08-23T16:36:32;29.90;41.20
3626;DHT22;1827;50.534;8.316;2022-08-23T16:38:58;30.10;39.90
3626;DHT22;1827;50.534;8.316;2022-08-23T16:41:23;30.40;39.20
3626;DHT22;1827;50.534;8.316;2022-08-23T16:43:49;30.30;40.20
3626;DHT22;1827;50.534;8.316;2022-08-23T16:46:16;30.10;42.90
3626;DHT22;1827;50.534;8.316;2022-08-23T16:48:42;30.10;41.20
3626;DHT22;1827;50.534;8.316;2022-08-23T16:51:09;30.00;38.80
3626;DHT22;1827;50.534;8.316;2022-08-23T16:53:34;29.70;38.80
3626;DHT22;1827;50.534;8.316;2022-08-23T16:56:00;30.00;39.80
3626;DHT22;1827;50.534;8.316;2022-08-23T16:58:26;29.90;40.50
3626;DHT22;1827;50.534;8.316;2022-08-23T17:00:52;29.70;40.30
3626;DHT22;1827;50.534;8.316;2022-08-23T17:03:17;29.80;40.80
3626;DHT22;1827;50.534;8.316;2022-08-23T17:05:43;29.60;40.60
3626;DHT22;1827;50.534;8.316;2022-08-23T17:08:09;29.50;41.90
3626;DHT22;1827;50.534;8.316;2022-08-23T17:10:35;29.30;40.70
3626;DHT22;1827;50.534;8.316;2022-08-23T17:13:01;29.10;42.80
3626;DHT22;1827;50.534;8.316;2022-08-23T17:15:29;29.20;41.30
3626;DHT22;1827;50.534;8.316;2022-08-23T17:17:54;29.10;42.10
3626;DHT22;1827;50.534;8.316;2022-08-23T17:20:21;28.80;41.90
3626;DHT22;1827;50.534;8.316;2022-08-23T17:22:47;28.90;40.80
3626;DHT22;1827;50.534;8.316;2022-08-23T17:25:14;28.70;41.60
3626;DHT22;1827;50.534;8.316;2022-08-23T17:27:40;28.70;41.80
3626;DHT22;1827;50.534;8.316;2022-08-23T17:30:09;28.60;43.90
3626;DHT22;1827;50.534;8.316;2022-08-23T17:32:38;28.50;44.20
3626;DHT22;1827;50.534;8.316;2022-08-23T17:35:05;28.40;45.80
3626;DHT22;1827;50.534;8.316;2022-08-23T17:37:32;28.20;47.40
3626;DHT22;1827;50.534;8.316;2022-08-23T17:39:58;28.00;47.10
3626;DHT22;1827;50.534;8.316;2022-08-23T17:42:24;27.90;48.60
3626;DHT22;1827;50.534;8.316;2022-08-23T17:44:50;27.80;47.70
3626;DHT22;1827;50.534;8.316;2022-08-23T17:47:15;27.60;47.70
3626;DHT22;1827;50.534;8.316;2022-08-23T17:49:43;27.60;47.30
3626;DHT22;1827;50.534;8.316;2022-08-23T17:52:08;27.40;47.40
3626;DHT22;1827;50.534;8.316;2022-08-23T17:54:35;27.30;47.90
3626;DHT22;1827;50.534;8.316;2022-08-23T17:57:01;27.10;49.00
3626;DHT22;1827;50.534;8.316;2022-08-23T17:59:28;26.90;50.30